Map

Track Data

SID SEASON NUMBER BASIN SUBBASIN NAME ISO_TIME NATURE LAT LON WMO_WIND WMO_PRES WMO_AGENCY TRACK_TYPE DIST2LAND LANDFALL IFLAG USA_AGENCY USA_ATCF_ID USA_LAT USA_LON USA_RECORD USA_STATUS USA_WIND USA_PRES USA_SSHS USA_R34_NE USA_R34_SE USA_R34_SW USA_R34_NW USA_R50_NE USA_R50_SE USA_R50_SW USA_R50_NW USA_R64_NE USA_R64_SE USA_R64_SW USA_R64_NW USA_POCI USA_ROCI USA_RMW USA_EYE TOKYO_LAT TOKYO_LON TOKYO_GRADE TOKYO_WIND TOKYO_PRES TOKYO_R50_DIR TOKYO_R50_LONG TOKYO_R50_SHORT TOKYO_R30_DIR TOKYO_R30_LONG TOKYO_R30_SHORT TOKYO_LAND CMA_LAT CMA_LON CMA_CAT CMA_WIND CMA_PRES HKO_LAT HKO_LON HKO_CAT HKO_WIND HKO_PRES NEWDELHI_LAT NEWDELHI_LON NEWDELHI_GRADE NEWDELHI_WIND NEWDELHI_PRES NEWDELHI_CI NEWDELHI_DP NEWDELHI_POCI REUNION_LAT REUNION_LON REUNION_TYPE REUNION_WIND REUNION_PRES REUNION_TNUM REUNION_CI REUNION_RMW REUNION_R34_NE REUNION_R34_SE REUNION_R34_SW REUNION_R34_NW REUNION_R50_NE REUNION_R50_SE REUNION_R50_SW REUNION_R50_NW REUNION_R64_NE REUNION_R64_SE REUNION_R64_SW REUNION_R64_NW BOM_LAT BOM_LON BOM_TYPE BOM_WIND BOM_PRES BOM_TNUM BOM_CI BOM_RMW BOM_R34_NE BOM_R34_SE BOM_R34_SW BOM_R34_NW BOM_R50_NE BOM_R50_SE BOM_R50_SW BOM_R50_NW BOM_R64_NE BOM_R64_SE BOM_R64_SW BOM_R64_NW BOM_ROCI BOM_POCI BOM_EYE BOM_POS_METHOD BOM_PRES_METHOD NADI_LAT NADI_LON NADI_CAT NADI_WIND NADI_PRES WELLINGTON_LAT WELLINGTON_LON WELLINGTON_WIND WELLINGTON_PRES DS824_LAT DS824_LON DS824_STAGE DS824_WIND DS824_PRES TD9636_LAT TD9636_LON TD9636_STAGE TD9636_WIND TD9636_PRES TD9635_LAT TD9635_LON TD9635_WIND TD9635_PRES TD9635_ROCI NEUMANN_LAT NEUMANN_LON NEUMANN_CLASS NEUMANN_WIND NEUMANN_PRES MLC_LAT MLC_LON MLC_CLASS MLC_WIND MLC_PRES USA_GUST BOM_GUST BOM_GUST_PER REUNION_GUST REUNION_GUST_PER USA_SEAHGT USA_SEARAD_NE USA_SEARAD_SE USA_SEARAD_SW USA_SEARAD_NW STORM_SPEED STORM_DIR
1944253N21302 1944 54 NA NA NOT_NAMED 1944-09-09 06:00:00 TS 20.8000 -58.5000 45 hurdat_atl main 790 739 O_____________ hurdat_atl AL071944 20.8000 -58.5000 TS 45 0 12 290
1944253N21302 1944 54 NA NA NOT_NAMED 1944-09-09 09:00:00 TS 21.0004 -59.0897 main 739 692 P_____________ AL071944 21.0004 -59.0897 TS 47 0 12 290
1944253N21302 1944 54 NA NA NOT_NAMED 1944-09-09 12:00:00 TS 21.2000 -59.7000 50 hurdat_atl main 692 647 O_____________ hurdat_atl AL071944 21.2000 -59.7000 TS 50 0 12 289
1944253N21302 1944 54 NA NA NOT_NAMED 1944-09-09 15:00:00 TS 21.3998 -60.3427 main 647 599 P_____________ AL071944 21.3998 -60.3427 TS 52 0 13 288
1944253N21302 1944 54 NA NA NOT_NAMED 1944-09-09 18:00:00 TS 21.6000 -61.0000 55 hurdat_atl main 599 564 O_____________ hurdat_atl AL071944 21.6000 -61.0000 TS 55 0 13 288
1944253N21302 1944 54 NA NA NOT_NAMED 1944-09-09 21:00:00 TS 21.7922 -61.6503 main 557 529 P_____________ AL071944 21.7922 -61.6503 TS 57 0 13 288
1944253N21302 1944 54 NA NA NOT_NAMED 1944-09-10 00:00:00 TS 22.0000 -62.3000 60 hurdat_atl main 529 509 O_____________ hurdat_atl AL071944 22.0000 -62.3000 TS 60 0 13 291
1944253N21302 1944 54 NA NA NOT_NAMED 1944-09-10 03:00:00 TS 22.2422 -62.9427 main 509 497 P_____________ AL071944 22.2422 -62.9427 TS 62 0 13 293
1944253N21302 1944 54 NA NA NOT_NAMED 1944-09-10 06:00:00 TS 22.5000 -63.6000 65 hurdat_atl main 503 498 O_____________ hurdat_atl AL071944 22.5000 -63.6000 HU 65 1 14 292
1944253N21302 1944 54 NA NA NOT_NAMED 1944-09-10 09:00:00 TS 22.7424 -64.3003 main 499 499 P_____________ AL071944 22.7424 -64.3003 HU 67 1 14 291
1944253N21302 1944 54 NA NA NOT_NAMED 1944-09-10 12:00:00 TS 23.0000 -65.0000 70 hurdat_atl main 518 517 O_____________ hurdat_atl AL071944 23.0000 -65.0000 HU 70 1 14 293
1944253N21302 1944 54 NA NA NOT_NAMED 1944-09-10 15:00:00 TS 23.2848 -65.6727 main 547 547 P_____________ AL071944 23.2848 -65.6727 HU 72 1 13 297
1944253N21302 1944 54 NA NA NOT_NAMED 1944-09-10 18:00:00 TS 23.6000 -66.3000 75 hurdat_atl main 572 565 O_____________ hurdat_atl AL071944 23.6000 -66.3000 HU 75 1 13 300
1944253N21302 1944 54 NA NA NOT_NAMED 1944-09-10 21:00:00 TS 23.9424 -66.8950 main 570 570 P_____________ AL071944 23.9424 -66.8950 HU 77 1 12 305
1944253N21302 1944 54 NA NA NOT_NAMED 1944-09-11 00:00:00 TS 24.3000 -67.4000 80 hurdat_atl main 589 589 O_____________ hurdat_atl AL071944 24.3000 -67.4000 HU 80 1 11 312
1944253N21302 1944 54 NA NA NOT_NAMED 1944-09-11 03:00:00 TS 24.6647 -67.7878 main 613 609 P_____________ AL071944 24.6647 -67.7878 HU 82 1 9 318
1944253N21302 1944 54 NA NA NOT_NAMED 1944-09-11 06:00:00 TS 25.0000 -68.1000 85 hurdat_atl main 634 634 O_____________ hurdat_atl AL071944 25.0000 -68.1000 HU 85 2 8 318
1944253N21302 1944 54 NA NA NOT_NAMED 1944-09-11 09:00:00 TS 25.2874 -68.4151 main 654 648 P_____________ AL071944 25.2874 -68.4151 HU 87 2 7 313
1944253N21302 1944 54 NA NA NOT_NAMED 1944-09-11 12:00:00 TS 25.5000 -68.7000 90 hurdat_atl main 650 643 O_____________ hurdat_atl AL071944 25.5000 -68.7000 HU 90 2 6 306
1944253N21302 1944 54 NA NA NOT_NAMED 1944-09-11 15:00:00 TS 25.6298 -68.9427 main 645 634 P_____________ AL071944 25.6298 -68.9427 HU 92 2 5 294
1944253N21302 1944 54 NA NA NOT_NAMED 1944-09-11 18:00:00 TS 25.7000 -69.2000 95 hurdat_atl main 634 616 O_____________ hurdat_atl AL071944 25.7000 -69.2000 HU 95 2 5 283
1944253N21302 1944 54 NA NA NOT_NAMED 1944-09-11 21:00:00 TS 25.7575 -69.5351 main 625 603 P_____________ AL071944 25.7575 -69.5351 HU 100 3 6 279
1944253N21302 1944 54 NA NA NOT_NAMED 1944-09-12 00:00:00 TS 25.8000 -69.9000 105 hurdat_atl main 603 587 O_____________ hurdat_atl AL071944 25.8000 -69.9000 HU 105 3 6 277
1944253N21302 1944 54 NA NA NOT_NAMED 1944-09-12 03:00:00 TS 25.8348 -70.2352 main 587 579 P_____________ AL071944 25.8348 -70.2352 HU 107 3 6 279
1944253N21302 1944 54 NA NA NOT_NAMED 1944-09-12 06:00:00 TS 25.9000 -70.6000 110 hurdat_atl main 579 571 O_____________ hurdat_atl AL071944 25.9000 -70.6000 HU 110 3 7 286
1944253N21302 1944 54 NA NA NOT_NAMED 1944-09-12 09:00:00 TS 26.0272 -71.0052 main 573 570 P_____________ AL071944 26.0272 -71.0052 HU 112 3 9 290
1944253N21302 1944 54 NA NA NOT_NAMED 1944-09-12 12:00:00 TS 26.2000 -71.5000 115 943 hurdat_atl main 579 576 O_____________ hurdat_atl AL071944 26.2000 -71.5000 HU 115 943 4 11 290
1944253N21302 1944 54 NA NA NOT_NAMED 1944-09-12 15:00:00 TS 26.3927 -72.1274 main 588 543 P_____________ AL071944 26.3927 -72.1274 HU 117 4 12 289
1944253N21302 1944 54 NA NA NOT_NAMED 1944-09-12 18:00:00 TS 26.6000 -72.8000 120 hurdat_atl main 543 497 O_____________ hurdat_atl AL071944 26.6000 -72.8000 HU 120 4 12 288
1944253N21302 1944 54 NA NA NOT_NAMED 1944-09-12 21:00:00 TS 26.7850 -73.4452 main 497 452 P_____________ AL071944 26.7850 -73.4452 HU 120 4 11 290
1944253N21302 1944 54 NA NA NOT_NAMED 1944-09-13 00:00:00 TS 27.0000 -74.0000 120 hurdat_atl main 452 428 O_____________ hurdat_atl AL071944 27.0000 -74.0000 HU 120 4 10 299
1944253N21302 1944 54 NA NA NOT_NAMED 1944-09-13 03:00:00 TS 27.2622 -74.4102 main 434 424 P_____________ AL071944 27.2622 -74.4102 HU 120 4 9 314
1944253N21302 1944 54 NA NA NOT_NAMED 1944-09-13 06:00:00 TS 27.6000 -74.7000 120 hurdat_atl main 431 430 O_____________ hurdat_atl AL071944 27.6000 -74.7000 HU 120 4 9 329
1944253N21302 1944 54 NA NA NOT_NAMED 1944-09-13 09:00:00 TS 28.0049 -74.9229 main 446 446 P_____________ AL071944 28.0049 -74.9229 HU 122 4 10 339
1944253N21302 1944 54 NA NA NOT_NAMED 1944-09-13 12:00:00 TS 28.5000 -75.1000 125 hurdat_atl main 476 476 O_____________ hurdat_atl AL071944 28.5000 -75.1000 HU 125 4 11 342
1944253N21302 1944 54 NA NA NOT_NAMED 1944-09-13 15:00:00 TS 29.0550 -75.3149 main 510 498 P_____________ AL071944 29.0550 -75.3149 HU 125 4 13 344
1944253N21302 1944 54 NA NA NOT_NAMED 1944-09-13 18:00:00 TS 29.7000 -75.5000 125 hurdat_atl main 503 450 O_____________ hurdat_atl AL071944 29.7000 -75.5000 HU 125 4 14 349
1944253N21302 1944 54 NA NA NOT_NAMED 1944-09-13 21:00:00 TS 30.4275 -75.6300 main 450 370 P_____________ AL071944 30.4275 -75.6300 HU 122 4 15 354
1944253N21302 1944 54 NA NA NOT_NAMED 1944-09-14 00:00:00 TS 31.2000 -75.7000 120 hurdat_atl main 370 309 O_____________ hurdat_atl AL071944 31.2000 -75.7000 HU 120 4 15 357
1944253N21302 1944 54 NA NA NOT_NAMED 1944-09-14 03:00:00 TS 31.9275 -75.7372 main 309 234 P_____________ AL071944 31.9275 -75.7372 HU 115 4 15 0
1944253N21302 1944 54 NA NA NOT_NAMED 1944-09-14 06:00:00 TS 32.7000 -75.7000 110 hurdat_atl main 234 157 O_____________ hurdat_atl AL071944 32.7000 -75.7000 HU 110 3 16 4
1944253N21302 1944 54 NA NA NOT_NAMED 1944-09-14 09:00:00 TS 33.5175 -75.6012 main 157 99 P_____________ AL071944 33.5175 -75.6012 HU 107 3 18 8
1944253N21302 1944 54 NA NA NOT_NAMED 1944-09-14 12:00:00 TS 34.5000 -75.4000 105 940 hurdat_atl main 93 29 O_____________ hurdat_atl AL071944 34.5000 -75.4000 HU 105 940 3 22 10
1944253N21302 1944 54 NA NA NOT_NAMED 1944-09-14 15:00:00 TS 35.7246 -75.1371 main 37 35 P_____________ AL071944 35.7246 -75.1371 HU 102 943 3 27 12
1944253N21302 1944 54 NA NA NOT_NAMED 1944-09-14 18:00:00 TS 37.1000 -74.7000 100 hurdat_atl main 98 64 I_____________ hurdat_atl AL071944 37.1000 -74.7000 HU 100 947 3 28 16
1944253N21302 1944 54 NA NA NOT_NAMED 1944-09-14 21:00:00 TS 38.4619 -74.1709 main 75 54 P_____________ AL071944 38.4619 -74.1709 HU 95 950 2 30 23
1944253N21302 1944 54 NA NA NOT_NAMED 1944-09-15 00:00:00 TS 39.9000 -73.2000 90 954 hurdat_atl main 71 20 O_____________ hurdat_atl AL071944 39.9000 -73.2000 HU 90 954 2 34 32
1944253N21302 1944 54 NA NA NOT_NAMED 1944-09-15 02:00:00 TS 40.9000 -72.2000 90 954 hurdat_atl main 27 22 O_____________ hurdat_atl AL071944 40.9000 -72.2000 L HU 90 954 2 33 38
1944253N21302 1944 54 NA NA NOT_NAMED 1944-09-15 03:00:00 TS 41.1796 -71.8686 main 11 0 P_____________ AL071944 41.1796 -71.8686 HU 87 955 2 20 42
1944253N21302 1944 54 NA NA NOT_NAMED 1944-09-15 04:00:00 TS 41.4000 -71.6000 85 957 hurdat_atl main 0 0 O_____________ hurdat_atl AL071944 41.4000 -71.6000 L HU 85 957 2 21 38
1944253N21302 1944 54 NA NA NOT_NAMED 1944-09-15 06:00:00 TS 42.0000 -71.0000 65 966 hurdat_atl main 0 0 O_____________ hurdat_atl AL071944 42.0000 -71.0000 HU 65 966 1 25 36
1944253N21302 1944 54 NA NA NOT_NAMED 1944-09-15 09:00:00 TS 43.0736 -69.9744 main 41 11 P_____________ AL071944 43.0736 -69.9744 HU 60 974 0 29 40
1944253N21302 1944 54 NA NA NOT_NAMED 1944-09-15 12:00:00 ET 44.2000 -68.5000 55 982 hurdat_atl main 0 0 O_____________ hurdat_atl AL071944 44.2000 -68.5000 EX 55 982 -4 33 52
1944253N21302 1944 54 NA NA NOT_NAMED 1944-09-15 15:00:00 ET 45.1310 -66.3192 main 11 0 P_____________ AL071944 45.1310 -66.3192 EX 52 -4 38 62
1944253N21302 1944 54 NA NA NOT_NAMED 1944-09-15 18:00:00 ET 46.0000 -63.7000 50 hurdat_atl main 11 0 O_____________ hurdat_atl AL071944 46.0000 -63.7000 EX 50 -4 41 65
1944253N21302 1944 54 NA NA NOT_NAMED 1944-09-15 21:00:00 ET 46.8744 -60.9989 main 18 0 P_____________ AL071944 46.8744 -60.9989 EX 47 -4 42 64
1944253N21302 1944 54 NA NA NOT_NAMED 1944-09-16 00:00:00 ET 47.8000 -58.2000 45 hurdat_atl main 0 0 O_____________ hurdat_atl AL071944 47.8000 -58.2000 EX 45 -4 42 63
1944253N21302 1944 54 NA NA NOT_NAMED 1944-09-16 03:00:00 ET 48.8216 -55.4000 main 0 0 P_____________ AL071944 48.8216 -55.4000 EX 42 -4 42 60
1944253N21302 1944 54 NA NA NOT_NAMED 1944-09-16 06:00:00 ET 49.9000 -52.6000 40 hurdat_atl main 92 92 O_____________ hurdat_atl AL071944 49.9000 -52.6000 EX 40 -4 42 59
1944253N21302 1944 54 NA NA NOT_NAMED 1944-09-16 09:00:00 ET 50.9699 -49.8214 main 323 323 P_____________ AL071944 50.9699 -49.8214 EX 37 -4 41 59
1944253N21302 1944 54 NA NA NOT_NAMED 1944-09-16 12:00:00 ET 52.0000 -47.0000 35 hurdat_atl main 545 O_____________ hurdat_atl AL071944 52.0000 -47.0000 EX 35 -4 40 59

About IBTrACS Database

This database is a web-friendly format of International Best Track Archive for Climate Stewardship (IBTrACS), a global best track data archive curated by NOAA dating back to 1842.

Updated: 2021-12-01